sensor_id;sensor_type;location;lat;lon;timestamp;P1;durP1;ratioP1;P2;durP2;ratioP2
4206;SDS011;2117;47.972;7.830;2022-10-31T02:32:30;6.37;;;3.03;;
4206;SDS011;2117;47.972;7.830;2022-10-31T02:35:08;7.40;;;2.80;;
4206;SDS011;2117;47.972;7.830;2022-10-31T02:37:47;7.00;;;2.80;;
4206;SDS011;2117;47.972;7.830;2022-10-31T02:40:30;6.47;;;2.80;;
4206;SDS011;2117;47.972;7.830;2022-10-31T02:45:35;5.23;;;2.63;;
4206;SDS011;2117;47.972;7.830;2022-10-31T02:48:10;5.17;;;2.87;;
4206;SDS011;2117;47.972;7.830;2022-10-31T02:50:41;5.40;;;2.67;;
4206;SDS011;2117;47.972;7.830;2022-10-31T02:53:10;9.87;;;2.87;;
4206;SDS011;2117;47.972;7.830;2022-10-31T02:55:44;7.07;;;3.23;;
4206;SDS011;2117;47.972;7.830;2022-10-31T02:58:15;6.03;;;3.50;;
4206;SDS011;2117;47.972;7.830;2022-10-31T03:01:07;8.93;;;3.00;;
4206;SDS011;2117;47.972;7.830;2022-10-31T03:06:19;12.63;;;3.80;;
4206;SDS011;2117;47.972;7.830;2022-10-31T03:09:00;5.47;;;2.80;;
4206;SDS011;2117;47.972;7.830;2022-10-31T03:11:29;4.87;;;3.00;;
4206;SDS011;2117;47.972;7.830;2022-10-31T03:14:08;4.60;;;2.87;;
4206;SDS011;2117;47.972;7.830;2022-10-31T03:19:10;9.60;;;3.63;;
4206;SDS011;2117;47.972;7.830;2022-10-31T03:21:45;5.00;;;2.70;;
4206;SDS011;2117;47.972;7.830;2022-10-31T03:24:14;6.97;;;3.80;;
4206;SDS011;2117;47.972;7.830;2022-10-31T03:26:48;5.00;;;3.03;;
4206;SDS011;2117;47.972;7.830;2022-10-31T03:29:18;15.13;;;4.13;;
4206;SDS011;2117;47.972;7.830;2022-10-31T03:31:49;5.23;;;2.90;;
4206;SDS011;2117;47.972;7.830;2022-10-31T03:34:24;6.93;;;3.63;;
4206;SDS011;2117;47.972;7.830;2022-10-31T03:36:51;4.70;;;2.47;;
4206;SDS011;2117;47.972;7.830;2022-10-31T03:39:21;6.20;;;2.23;;
4206;SDS011;2117;47.972;7.830;2022-10-31T03:42:02;13.17;;;5.83;;
4206;SDS011;2117;47.972;7.830;2022-10-31T03:44:33;7.63;;;3.40;;
4206;SDS011;2117;47.972;7.830;2022-10-31T03:47:00;8.07;;;2.80;;
4206;SDS011;2117;47.972;7.830;2022-10-31T03:49:28;5.63;;;2.93;;
4206;SDS011;2117;47.972;7.830;2022-10-31T03:51:57;10.30;;;2.80;;
4206;SDS011;2117;47.972;7.830;2022-10-31T03:54:44;10.87;;;3.00;;
4206;SDS011;2117;47.972;7.830;2022-10-31T03:59:51;8.53;;;2.90;;
4206;SDS011;2117;47.972;7.830;2022-10-31T04:02:21;6.80;;;2.77;;
4206;SDS011;2117;47.972;7.830;2022-10-31T04:04:50;7.47;;;3.30;;
4206;SDS011;2117;47.972;7.830;2022-10-31T04:07:16;4.80;;;3.07;;
4206;SDS011;2117;47.972;7.830;2022-10-31T04:09:43;7.83;;;3.23;;
4206;SDS011;2117;47.972;7.830;2022-10-31T04:12:11;4.97;;;3.40;;
4206;SDS011;2117;47.972;7.830;2022-10-31T04:14:40;5.37;;;2.60;;
4206;SDS011;2117;47.972;7.830;2022-10-31T04:17:09;7.13;;;3.00;;
4206;SDS011;2117;47.972;7.830;2022-10-31T04:19:37;6.50;;;3.63;;
4206;SDS011;2117;47.972;7.830;2022-10-31T04:22:03;5.00;;;3.47;;
4206;SDS011;2117;47.972;7.830;2022-10-31T04:24:28;4.37;;;2.90;;
4206;SDS011;2117;47.972;7.830;2022-10-31T04:26:54;10.17;;;4.20;;
4206;SDS011;2117;47.972;7.830;2022-10-31T04:29:19;5.13;;;2.27;;
4206;SDS011;2117;47.972;7.830;2022-10-31T04:31:45;10.70;;;3.13;;
4206;SDS011;2117;47.972;7.830;2022-10-31T04:34:10;9.40;;;3.27;;
4206;SDS011;2117;47.972;7.830;2022-10-31T04:36:36;11.07;;;3.00;;
4206;SDS011;2117;47.972;7.830;2022-10-31T04:39:02;6.87;;;3.47;;
4206;SDS011;2117;47.972;7.830;2022-10-31T04:41:27;6.47;;;3.03;;
4206;SDS011;2117;47.972;7.830;2022-10-31T04:43:53;9.50;;;4.03;;
4206;SDS011;2117;47.972;7.830;2022-10-31T04:46:18;7.50;;;3.03;;
4206;SDS011;2117;47.972;7.830;2022-10-31T04:48:44;8.20;;;3.57;;
4206;SDS011;2117;47.972;7.830;2022-10-31T04:51:10;8.47;;;3.37;;
4206;SDS011;2117;47.972;7.830;2022-10-31T04:53:35;10.00;;;3.27;;
4206;SDS011;2117;47.972;7.830;2022-10-31T04:56:01;10.30;;;3.90;;
4206;SDS011;2117;47.972;7.830;2022-10-31T04:58:27;5.90;;;3.33;;
4206;SDS011;2117;47.972;7.830;2022-10-31T05:00:54;8.50;;;3.40;;
4206;SDS011;2117;47.972;7.830;2022-10-31T05:03:20;14.77;;;4.57;;
4206;SDS011;2117;47.972;7.830;2022-10-31T05:05:46;9.80;;;2.93;;
4206;SDS011;2117;47.972;7.830;2022-10-31T05:08:12;8.00;;;2.90;;
4206;SDS011;2117;47.972;7.830;2022-10-31T05:10:37;6.90;;;3.33;;
4206;SDS011;2117;47.972;7.830;2022-10-31T05:13:03;7.43;;;3.67;;
4206;SDS011;2117;47.972;7.830;2022-10-31T05:15:29;5.87;;;2.90;;
4206;SDS011;2117;47.972;7.830;2022-10-31T05:17:55;10.03;;;3.20;;
4206;SDS011;2117;47.972;7.830;2022-10-31T05:20:23;8.03;;;3.57;;
4206;SDS011;2117;47.972;7.830;2022-10-31T05:22:51;5.97;;;4.00;;
4206;SDS011;2117;47.972;7.830;2022-10-31T05:25:18;9.10;;;3.30;;
4206;SDS011;2117;47.972;7.830;2022-10-31T05:27:46;11.00;;;3.40;;
4206;SDS011;2117;47.972;7.830;2022-10-31T05:30:14;7.70;;;3.67;;
4206;SDS011;2117;47.972;7.830;2022-10-31T05:32:46;10.70;;;3.40;;
4206;SDS011;2117;47.972;7.830;2022-10-31T05:35:15;7.23;;;2.93;;
4206;SDS011;2117;47.972;7.830;2022-10-31T05:37:42;9.87;;;3.83;;
4206;SDS011;2117;47.972;7.830;2022-10-31T05:40:09;11.40;;;3.67;;
4206;SDS011;2117;47.972;7.830;2022-10-31T05:42:38;9.37;;;4.87;;
4206;SDS011;2117;47.972;7.830;2022-10-31T05:45:04;10.67;;;3.13;;
4206;SDS011;2117;47.972;7.830;2022-10-31T05:47:31;7.20;;;3.40;;
4206;SDS011;2117;47.972;7.830;2022-10-31T05:49:56;12.73;;;4.73;;
4206;SDS011;2117;47.972;7.830;2022-10-31T05:52:22;6.47;;;4.00;;
4206;SDS011;2117;47.972;7.830;2022-10-31T05:54:47;10.67;;;4.20;;
4206;SDS011;2117;47.972;7.830;2022-10-31T05:57:13;6.50;;;3.33;;
4206;SDS011;2117;47.972;7.830;2022-10-31T05:59:38;6.80;;;4.50;;
4206;SDS011;2117;47.972;7.830;2022-10-31T06:02:04;5.00;;;3.50;;
4206;SDS011;2117;47.972;7.830;2022-10-31T06:04:29;5.53;;;3.20;;
4206;SDS011;2117;47.972;7.830;2022-10-31T06:06:56;9.60;;;4.00;;
4206;SDS011;2117;47.972;7.830;2022-10-31T06:09:22;7.97;;;3.80;;
4206;SDS011;2117;47.972;7.830;2022-10-31T06:11:47;6.70;;;3.67;;
4206;SDS011;2117;47.972;7.830;2022-10-31T06:14:13;7.97;;;4.70;;
4206;SDS011;2117;47.972;7.830;2022-10-31T06:16:38;9.83;;;4.37;;
4206;SDS011;2117;47.972;7.830;2022-10-31T06:19:04;8.60;;;4.73;;
4206;SDS011;2117;47.972;7.830;2022-10-31T06:21:30;9.47;;;4.20;;
4206;SDS011;2117;47.972;7.830;2022-10-31T06:23:55;9.23;;;4.70;;
4206;SDS011;2117;47.972;7.830;2022-10-31T06:26:21;6.80;;;3.67;;
4206;SDS011;2117;47.972;7.830;2022-10-31T06:28:46;8.83;;;4.03;;
4206;SDS011;2117;47.972;7.830;2022-10-31T06:31:12;9.43;;;3.87;;
4206;SDS011;2117;47.972;7.830;2022-10-31T06:33:38;8.60;;;5.40;;
4206;SDS011;2117;47.972;7.830;2022-10-31T06:36:06;7.53;;;5.27;;
4206;SDS011;2117;47.972;7.830;2022-10-31T06:38:32;7.70;;;4.90;;
4206;SDS011;2117;47.972;7.830;2022-10-31T06:41:01;9.30;;;4.70;;
4206;SDS011;2117;47.972;7.830;2022-10-31T06:43:28;7.73;;;4.53;;
4206;SDS011;2117;47.972;7.830;2022-10-31T06:45:53;8.10;;;5.17;;
4206;SDS011;2117;47.972;7.830;2022-10-31T06:48:19;10.17;;;5.00;;
4206;SDS011;2117;47.972;7.830;2022-10-31T06:50:44;10.70;;;4.20;;
4206;SDS011;2117;47.972;7.830;2022-10-31T06:53:10;7.33;;;5.03;;
4206;SDS011;2117;47.972;7.830;2022-10-31T06:55:36;11.30;;;5.57;;
4206;SDS011;2117;47.972;7.830;2022-10-31T06:58:01;8.73;;;5.40;;
4206;SDS011;2117;47.972;7.830;2022-10-31T07:00:28;14.73;;;5.43;;
4206;SDS011;2117;47.972;7.830;2022-10-31T07:02:58;9.20;;;4.80;;
4206;SDS011;2117;47.972;7.830;2022-10-31T07:05:26;9.37;;;5.73;;
4206;SDS011;2117;47.972;7.830;2022-10-31T07:07:53;7.33;;;4.93;;
4206;SDS011;2117;47.972;7.830;2022-10-31T07:10:30;14.83;;;4.87;;
4206;SDS011;2117;47.972;7.830;2022-10-31T07:13:01;12.53;;;5.20;;
4206;SDS011;2117;47.972;7.830;2022-10-31T07:15:28;16.07;;;5.20;;
4206;SDS011;2117;47.972;7.830;2022-10-31T07:18:04;11.37;;;5.63;;
4206;SDS011;2117;47.972;7.830;2022-10-31T07:20:30;9.60;;;5.40;;
4206;SDS011;2117;47.972;7.830;2022-10-31T07:22:57;10.67;;;5.97;;
4206;SDS011;2117;47.972;7.830;2022-10-31T07:25:23;7.73;;;5.53;;
4206;SDS011;2117;47.972;7.830;2022-10-31T07:27:49;10.80;;;5.40;;
4206;SDS011;2117;47.972;7.830;2022-10-31T07:30:15;10.60;;;6.00;;
4206;SDS011;2117;47.972;7.830;2022-10-31T07:32:45;13.20;;;6.77;;
4206;SDS011;2117;47.972;7.830;2022-10-31T07:35:12;12.13;;;5.70;;
4206;SDS011;2117;47.972;7.830;2022-10-31T07:37:39;13.70;;;5.90;;
4206;SDS011;2117;47.972;7.830;2022-10-31T07:40:06;12.60;;;6.70;;
4206;SDS011;2117;47.972;7.830;2022-10-31T07:42:39;13.90;;;6.43;;
4206;SDS011;2117;47.972;7.830;2022-10-31T07:45:07;13.37;;;6.43;;
4206;SDS011;2117;47.972;7.830;2022-10-31T07:47:47;10.80;;;6.10;;
4206;SDS011;2117;47.972;7.830;2022-10-31T07:50:15;10.50;;;6.30;;
4206;SDS011;2117;47.972;7.830;2022-10-31T07:52:45;10.03;;;5.83;;
4206;SDS011;2117;47.972;7.830;2022-10-31T07:55:11;9.40;;;6.20;;
4206;SDS011;2117;47.972;7.830;2022-10-31T07:57:38;8.20;;;5.77;;
4206;SDS011;2117;47.972;7.830;2022-10-31T08:00:08;14.90;;;6.60;;
4206;SDS011;2117;47.972;7.830;2022-10-31T08:02:35;13.90;;;7.70;;
4206;SDS011;2117;47.972;7.830;2022-10-31T08:05:00;15.13;;;6.60;;
4206;SDS011;2117;47.972;7.830;2022-10-31T08:07:29;9.50;;;5.60;;
4206;SDS011;2117;47.972;7.830;2022-10-31T08:10:00;9.83;;;6.10;;
4206;SDS011;2117;47.972;7.830;2022-10-31T08:12:25;14.17;;;5.40;;
4206;SDS011;2117;47.972;7.830;2022-10-31T08:14:51;15.80;;;6.47;;
4206;SDS011;2117;47.972;7.830;2022-10-31T08:17:16;9.43;;;5.70;;
4206;SDS011;2117;47.972;7.830;2022-10-31T08:19:42;11.33;;;5.97;;
4206;SDS011;2117;47.972;7.830;2022-10-31T08:22:07;13.03;;;5.57;;
4206;SDS011;2117;47.972;7.830;2022-10-31T08:24:33;9.03;;;5.77;;
4206;SDS011;2117;47.972;7.830;2022-10-31T08:26:58;19.50;;;6.13;;
4206;SDS011;2117;47.972;7.830;2022-10-31T08:29:24;13.10;;;6.77;;
4206;SDS011;2117;47.972;7.830;2022-10-31T08:31:50;12.90;;;5.97;;
4206;SDS011;2117;47.972;7.830;2022-10-31T08:34:15;10.60;;;5.13;;
4206;SDS011;2117;47.972;7.830;2022-10-31T08:36:41;11.00;;;5.50;;
4206;SDS011;2117;47.972;7.830;2022-10-31T08:39:09;10.43;;;5.17;;
4206;SDS011;2117;47.972;7.830;2022-10-31T08:41:35;7.57;;;5.07;;
4206;SDS011;2117;47.972;7.830;2022-10-31T08:44:00;8.13;;;5.50;;
4206;SDS011;2117;47.972;7.830;2022-10-31T08:46:26;9.30;;;4.97;;
4206;SDS011;2117;47.972;7.830;2022-10-31T08:48:52;15.63;;;5.77;;
4206;SDS011;2117;47.972;7.830;2022-10-31T08:51:17;11.00;;;5.87;;
4206;SDS011;2117;47.972;7.830;2022-10-31T08:53:43;9.37;;;6.43;;
4206;SDS011;2117;47.972;7.830;2022-10-31T08:56:08;18.10;;;5.77;;
4206;SDS011;2117;47.972;7.830;2022-10-31T08:58:34;15.30;;;5.80;;
4206;SDS011;2117;47.972;7.830;2022-10-31T09:01:00;20.67;;;5.30;;
4206;SDS011;2117;47.972;7.830;2022-10-31T09:03:27;9.00;;;4.80;;
4206;SDS011;2117;47.972;7.830;2022-10-31T09:05:55;9.40;;;4.90;;
4206;SDS011;2117;47.972;7.830;2022-10-31T09:08:24;9.83;;;5.60;;
4206;SDS011;2117;47.972;7.830;2022-10-31T09:10:50;9.40;;;5.50;;
4206;SDS011;2117;47.972;7.830;2022-10-31T09:13:17;9.47;;;5.57;;
4206;SDS011;2117;47.972;7.830;2022-10-31T09:15:45;8.93;;;4.53;;
4206;SDS011;2117;47.972;7.830;2022-10-31T09:18:13;10.67;;;5.10;;
4206;SDS011;2117;47.972;7.830;2022-10-31T09:20:39;13.73;;;5.80;;
4206;SDS011;2117;47.972;7.830;2022-10-31T09:23:07;11.50;;;5.30;;
4206;SDS011;2117;47.972;7.830;2022-10-31T09:25:35;11.03;;;5.43;;
4206;SDS011;2117;47.972;7.830;2022-10-31T09:28:02;7.43;;;4.50;;
4206;SDS011;2117;47.972;7.830;2022-10-31T09:30:30;16.90;;;4.40;;
4206;SDS011;2117;47.972;7.830;2022-10-31T09:32:58;7.53;;;5.80;;
4206;SDS011;2117;47.972;7.830;2022-10-31T09:35:25;7.30;;;4.43;;
4206;SDS011;2117;47.972;7.830;2022-10-31T09:37:55;15.47;;;4.63;;
4206;SDS011;2117;47.972;7.830;2022-10-31T09:40:27;13.20;;;5.87;;
4206;SDS011;2117;47.972;7.830;2022-10-31T09:43:08;8.37;;;4.60;;
4206;SDS011;2117;47.972;7.830;2022-10-31T09:51:25;17.73;;;4.60;;
4206;SDS011;2117;47.972;7.830;2022-10-31T09:54:05;8.67;;;5.77;;
4206;SDS011;2117;47.972;7.830;2022-10-31T09:56:39;14.90;;;6.30;;
4206;SDS011;2117;47.972;7.830;2022-10-31T09:59:08;6.87;;;4.93;;
4206;SDS011;2117;47.972;7.830;2022-10-31T10:01:45;13.43;;;4.67;;
4206;SDS011;2117;47.972;7.830;2022-10-31T10:06:57;14.30;;;5.83;;
4206;SDS011;2117;47.972;7.830;2022-10-31T10:09:27;15.37;;;6.27;;
4206;SDS011;2117;47.972;7.830;2022-10-31T10:11:55;8.20;;;5.43;;
4206;SDS011;2117;47.972;7.830;2022-10-31T10:14:38;9.10;;;6.57;;
4206;SDS011;2117;47.972;7.830;2022-10-31T10:25:14;9.13;;;5.87;;
4206;SDS011;2117;47.972;7.830;2022-10-31T10:27:54;17.23;;;7.47;;
4206;SDS011;2117;47.972;7.830;2022-10-31T10:30:42;14.63;;;6.60;;
4206;SDS011;2117;47.972;7.830;2022-10-31T10:33:14;7.90;;;5.67;;
4206;SDS011;2117;47.972;7.830;2022-10-31T10:35:42;12.10;;;6.07;;
4206;SDS011;2117;47.972;7.830;2022-10-31T10:40:55;8.60;;;5.30;;
4206;SDS011;2117;47.972;7.830;2022-10-31T10:43:38;8.73;;;6.30;;
4206;SDS011;2117;47.972;7.830;2022-10-31T10:46:16;11.93;;;7.03;;
4206;SDS011;2117;47.972;7.830;2022-10-31T10:51:44;13.93;;;6.60;;
4206;SDS011;2117;47.972;7.830;2022-10-31T10:57:22;13.90;;;7.20;;
4206;SDS011;2117;47.972;7.830;2022-10-31T11:02:57;11.07;;;7.20;;
4206;SDS011;2117;47.972;7.830;2022-10-31T11:07:59;11.63;;;6.70;;
4206;SDS011;2117;47.972;7.830;2022-10-31T11:10:25;14.60;;;7.33;;
4206;SDS011;2117;47.972;7.830;2022-10-31T11:13:17;15.93;;;6.83;;
4206;SDS011;2117;47.972;7.830;2022-10-31T11:15:50;21.00;;;8.13;;
4206;SDS011;2117;47.972;7.830;2022-10-31T11:18:29;11.60;;;7.00;;
4206;SDS011;2117;47.972;7.830;2022-10-31T11:20:57;13.80;;;7.47;;
4206;SDS011;2117;47.972;7.830;2022-10-31T11:23:25;14.63;;;8.47;;
4206;SDS011;2117;47.972;7.830;2022-10-31T11:25:56;11.17;;;7.00;;
4206;SDS011;2117;47.972;7.830;2022-10-31T11:28:24;11.67;;;7.63;;
4206;SDS011;2117;47.972;7.830;2022-10-31T11:33:39;7.50;;;6.80;;
4206;SDS011;2117;47.972;7.830;2022-10-31T11:36:16;11.53;;;7.30;;
4206;SDS011;2117;47.972;7.830;2022-10-31T11:38:48;11.80;;;6.43;;
4206;SDS011;2117;47.972;7.830;2022-10-31T11:41:15;7.43;;;5.80;;
4206;SDS011;2117;47.972;7.830;2022-10-31T11:43:53;15.20;;;6.90;;
4206;SDS011;2117;47.972;7.830;2022-10-31T11:46:24;12.63;;;5.87;;
4206;SDS011;2117;47.972;7.830;2022-10-31T11:48:59;11.90;;;6.67;;
4206;SDS011;2117;47.972;7.830;2022-10-31T11:51:30;15.50;;;7.10;;
4206;SDS011;2117;47.972;7.830;2022-10-31T11:53:58;12.17;;;5.93;;
4206;SDS011;2117;47.972;7.830;2022-10-31T11:56:27;11.00;;;5.37;;
4206;SDS011;2117;47.972;7.830;2022-10-31T11:59:03;20.57;;;5.97;;
4206;SDS011;2117;47.972;7.830;2022-10-31T12:01:31;19.40;;;6.07;;
4206;SDS011;2117;47.972;7.830;2022-10-31T12:04:06;8.40;;;5.17;;
4206;SDS011;2117;47.972;7.830;2022-10-31T12:06:34;9.87;;;5.43;;
4206;SDS011;2117;47.972;7.830;2022-10-31T12:09:18;10.60;;;6.00;;
4206;SDS011;2117;47.972;7.830;2022-10-31T12:17:19;16.43;;;5.90;;
4206;SDS011;2117;47.972;7.830;2022-10-31T12:20:52;12.23;;;5.67;;
4206;SDS011;2117;47.972;7.830;2022-10-31T12:23:06;10.40;;;4.93;;
4206;SDS011;2117;47.972;7.830;2022-10-31T12:25:50;10.73;;;5.30;;
4206;SDS011;2117;47.972;7.830;2022-10-31T12:28:44;15.23;;;5.80;;
4206;SDS011;2117;47.972;7.830;2022-10-31T12:36:46;12.40;;;5.53;;
4206;SDS011;2117;47.972;7.830;2022-10-31T12:39:42;12.47;;;6.83;;
4206;SDS011;2117;47.972;7.830;2022-10-31T12:50:51;8.13;;;5.20;;
4206;SDS011;2117;47.972;7.830;2022-10-31T12:59:51;12.27;;;6.50;;
4206;SDS011;2117;47.972;7.830;2022-10-31T13:02:28;12.07;;;6.80;;
4206;SDS011;2117;47.972;7.830;2022-10-31T13:05:12;12.43;;;7.30;;
4206;SDS011;2117;47.972;7.830;2022-10-31T13:07:41;13.90;;;6.37;;
4206;SDS011;2117;47.972;7.830;2022-10-31T13:10:29;10.10;;;5.83;;
4206;SDS011;2117;47.972;7.830;2022-10-31T13:12:58;13.67;;;6.20;;
4206;SDS011;2117;47.972;7.830;2022-10-31T13:15:32;14.23;;;5.93;;
4206;SDS011;2117;47.972;7.830;2022-10-31T13:18:01;10.23;;;5.63;;
4206;SDS011;2117;47.972;7.830;2022-10-31T13:20:37;11.30;;;4.87;;
4206;SDS011;2117;47.972;7.830;2022-10-31T13:23:10;10.07;;;6.07;;
4206;SDS011;2117;47.972;7.830;2022-10-31T13:25:46;11.53;;;5.67;;
4206;SDS011;2117;47.972;7.830;2022-10-31T13:28:23;13.10;;;6.40;;
4206;SDS011;2117;47.972;7.830;2022-10-31T13:31:02;11.63;;;6.07;;
4206;SDS011;2117;47.972;7.830;2022-10-31T13:33:34;11.57;;;5.10;;
4206;SDS011;2117;47.972;7.830;2022-10-31T13:38:57;8.97;;;5.63;;
4206;SDS011;2117;47.972;7.830;2022-10-31T13:41:55;7.97;;;5.90;;
4206;SDS011;2117;47.972;7.830;2022-10-31T13:44:25;14.60;;;6.30;;
4206;SDS011;2117;47.972;7.830;2022-10-31T13:46:53;11.80;;;6.77;;
4206;SDS011;2117;47.972;7.830;2022-10-31T13:49:24;19.70;;;6.77;;
4206;SDS011;2117;47.972;7.830;2022-10-31T13:54:47;15.07;;;7.80;;
4206;SDS011;2117;47.972;7.830;2022-10-31T13:57:17;14.23;;;5.63;;
4206;SDS011;2117;47.972;7.830;2022-10-31T13:59:51;9.27;;;5.97;;
4206;SDS011;2117;47.972;7.830;2022-10-31T14:02:22;9.13;;;5.73;;
4206;SDS011;2117;47.972;7.830;2022-10-31T14:05:03;9.77;;;5.53;;
4206;SDS011;2117;47.972;7.830;2022-10-31T14:07:31;15.60;;;6.23;;
4206;SDS011;2117;47.972;7.830;2022-10-31T14:10:02;12.13;;;6.00;;
4206;SDS011;2117;47.972;7.830;2022-10-31T14:12:44;9.97;;;5.73;;
4206;SDS011;2117;47.972;7.830;2022-10-31T14:15:13;9.80;;;4.83;;
4206;SDS011;2117;47.972;7.830;2022-10-31T14:23:11;9.77;;;5.50;;
4206;SDS011;2117;47.972;7.830;2022-10-31T14:25:37;12.07;;;6.53;;
4206;SDS011;2117;47.972;7.830;2022-10-31T14:28:18;17.30;;;5.20;;
4206;SDS011;2117;47.972;7.830;2022-10-31T14:30:54;8.23;;;5.40;;
4206;SDS011;2117;47.972;7.830;2022-10-31T14:33:22;10.53;;;5.33;;
4206;SDS011;2117;47.972;7.830;2022-10-31T14:35:57;10.50;;;5.67;;
4206;SDS011;2117;47.972;7.830;2022-10-31T14:41:29;13.67;;;7.70;;
4206;SDS011;2117;47.972;7.830;2022-10-31T14:44:12;12.13;;;7.43;;
4206;SDS011;2117;47.972;7.830;2022-10-31T14:47:41;14.50;;;5.87;;
4206;SDS011;2117;47.972;7.830;2022-10-31T14:50:04;16.30;;;6.30;;
4206;SDS011;2117;47.972;7.830;2022-10-31T14:52:53;19.03;;;6.70;;
4206;SDS011;2117;47.972;7.830;2022-10-31T14:55:21;11.57;;;6.80;;
4206;SDS011;2117;47.972;7.830;2022-10-31T14:57:50;17.33;;;8.43;;
4206;SDS011;2117;47.972;7.830;2022-10-31T15:00:20;16.20;;;7.20;;
4206;SDS011;2117;47.972;7.830;2022-10-31T15:05:27;11.50;;;7.60;;
4206;SDS011;2117;47.972;7.830;2022-10-31T15:07:57;14.20;;;7.57;;
4206;SDS011;2117;47.972;7.830;2022-10-31T15:12:54;15.87;;;7.63;;
4206;SDS011;2117;47.972;7.830;2022-10-31T15:15:21;26.70;;;7.73;;
4206;SDS011;2117;47.972;7.830;2022-10-31T15:17:53;31.00;;;7.87;;
4206;SDS011;2117;47.972;7.830;2022-10-31T15:20:24;16.63;;;8.53;;
4206;SDS011;2117;47.972;7.830;2022-10-31T15:22:51;11.70;;;7.10;;
4206;SDS011;2117;47.972;7.830;2022-10-31T15:25:19;16.53;;;7.10;;
4206;SDS011;2117;47.972;7.830;2022-10-31T15:27:47;12.67;;;7.60;;
4206;SDS011;2117;47.972;7.830;2022-10-31T15:30:21;14.73;;;7.80;;
4206;SDS011;2117;47.972;7.830;2022-10-31T15:32:48;15.10;;;7.53;;
4206;SDS011;2117;47.972;7.830;2022-10-31T15:35:27;14.97;;;7.47;;
4206;SDS011;2117;47.972;7.830;2022-10-31T15:37:55;17.13;;;8.73;;
4206;SDS011;2117;47.972;7.830;2022-10-31T15:40:22;15.43;;;8.10;;
4206;SDS011;2117;47.972;7.830;2022-10-31T15:42:56;13.13;;;7.83;;
4206;SDS011;2117;47.972;7.830;2022-10-31T15:45:24;16.00;;;7.70;;
4206;SDS011;2117;47.972;7.830;2022-10-31T15:50:21;17.43;;;8.20;;
4206;SDS011;2117;47.972;7.830;2022-10-31T15:52:48;15.63;;;7.90;;
4206;SDS011;2117;47.972;7.830;2022-10-31T15:55:16;19.07;;;9.60;;
4206;SDS011;2117;47.972;7.830;2022-10-31T15:57:50;14.00;;;7.93;;
4206;SDS011;2117;47.972;7.830;2022-10-31T16:00:28;11.90;;;7.73;;
4206;SDS011;2117;47.972;7.830;2022-10-31T16:06:00;9.23;;;6.93;;
4206;SDS011;2117;47.972;7.830;2022-10-31T16:10:55;12.60;;;8.43;;
4206;SDS011;2117;47.972;7.830;2022-10-31T16:13:26;14.80;;;8.50;;
4206;SDS011;2117;47.972;7.830;2022-10-31T16:15:59;22.30;;;9.53;;
4206;SDS011;2117;47.972;7.830;2022-10-31T16:18:27;14.10;;;9.40;;
4206;SDS011;2117;47.972;7.830;2022-10-31T16:20:55;15.90;;;8.97;;
4206;SDS011;2117;47.972;7.830;2022-10-31T16:23:22;18.93;;;10.33;;
4206;SDS011;2117;47.972;7.830;2022-10-31T16:25:50;17.43;;;9.33;;
4206;SDS011;2117;47.972;7.830;2022-10-31T16:28:17;17.30;;;10.33;;
4206;SDS011;2117;47.972;7.830;2022-10-31T16:30:49;17.70;;;9.60;;
4206;SDS011;2117;47.972;7.830;2022-10-31T16:33:37;14.23;;;8.83;;
4206;SDS011;2117;47.972;7.830;2022-10-31T16:38:52;15.10;;;10.10;;
4206;SDS011;2117;47.972;7.830;2022-10-31T16:41:18;14.77;;;8.90;;
4206;SDS011;2117;47.972;7.830;2022-10-31T16:43:44;16.07;;;8.57;;
4206;SDS011;2117;47.972;7.830;2022-10-31T16:46:14;16.27;;;8.93;;
4206;SDS011;2117;47.972;7.830;2022-10-31T16:48:47;14.73;;;8.60;;
4206;SDS011;2117;47.972;7.830;2022-10-31T16:51:13;15.73;;;8.73;;
4206;SDS011;2117;47.972;7.830;2022-10-31T16:53:38;12.73;;;7.53;;
4206;SDS011;2117;47.972;7.830;2022-10-31T16:56:04;11.93;;;8.07;;
4206;SDS011;2117;47.972;7.830;2022-10-31T16:58:32;18.23;;;8.30;;
4206;SDS011;2117;47.972;7.830;2022-10-31T17:01:00;16.87;;;8.33;;
4206;SDS011;2117;47.972;7.830;2022-10-31T17:03:28;20.27;;;8.13;;
4206;SDS011;2117;47.972;7.830;2022-10-31T17:05:55;15.43;;;9.27;;
4206;SDS011;2117;47.972;7.830;2022-10-31T17:08:21;14.30;;;9.00;;
4206;SDS011;2117;47.972;7.830;2022-10-31T17:10:47;23.70;;;11.13;;
4206;SDS011;2117;47.972;7.830;2022-10-31T17:13:18;22.00;;;10.30;;
4206;SDS011;2117;47.972;7.830;2022-10-31T17:15:46;21.67;;;10.20;;
4206;SDS011;2117;47.972;7.830;2022-10-31T17:18:14;19.50;;;9.80;;
4206;SDS011;2117;47.972;7.830;2022-10-31T17:20:41;17.90;;;10.10;;
4206;SDS011;2117;47.972;7.830;2022-10-31T17:23:08;15.60;;;9.10;;
4206;SDS011;2117;47.972;7.830;2022-10-31T17:25:35;15.70;;;7.90;;
4206;SDS011;2117;47.972;7.830;2022-10-31T17:28:01;10.10;;;7.43;;
4206;SDS011;2117;47.972;7.830;2022-10-31T17:30:27;13.77;;;8.47;;
4206;SDS011;2117;47.972;7.830;2022-10-31T17:32:53;13.83;;;7.23;;
4206;SDS011;2117;47.972;7.830;2022-10-31T17:35:19;15.13;;;8.63;;
4206;SDS011;2117;47.972;7.830;2022-10-31T17:37:45;25.10;;;9.50;;
4206;SDS011;2117;47.972;7.830;2022-10-31T17:40:13;23.80;;;10.63;;
4206;SDS011;2117;47.972;7.830;2022-10-31T17:42:40;16.23;;;9.90;;
4206;SDS011;2117;47.972;7.830;2022-10-31T17:45:06;16.63;;;10.50;;
4206;SDS011;2117;47.972;7.830;2022-10-31T17:47:33;17.17;;;10.27;;
4206;SDS011;2117;47.972;7.830;2022-10-31T17:49:59;24.20;;;11.30;;
4206;SDS011;2117;47.972;7.830;2022-10-31T17:52:25;20.23;;;10.97;;
4206;SDS011;2117;47.972;7.830;2022-10-31T17:54:50;18.10;;;11.27;;
4206;SDS011;2117;47.972;7.830;2022-10-31T17:57:16;20.70;;;10.80;;
4206;SDS011;2117;47.972;7.830;2022-10-31T17:59:42;18.77;;;10.23;;
4206;SDS011;2117;47.972;7.830;2022-10-31T18:02:10;13.67;;;8.17;;
4206;SDS011;2117;47.972;7.830;2022-10-31T18:04:36;16.03;;;9.03;;
4206;SDS011;2117;47.972;7.830;2022-10-31T18:07:04;11.47;;;9.23;;
4206;SDS011;2117;47.972;7.830;2022-10-31T18:09:30;15.70;;;10.00;;
4206;SDS011;2117;47.972;7.830;2022-10-31T18:11:55;12.03;;;9.33;;
4206;SDS011;2117;47.972;7.830;2022-10-31T18:14:21;20.00;;;9.90;;
4206;SDS011;2117;47.972;7.830;2022-10-31T18:16:47;17.40;;;12.20;;
4206;SDS011;2117;47.972;7.830;2022-10-31T18:19:13;22.07;;;13.30;;
4206;SDS011;2117;47.972;7.830;2022-10-31T18:21:40;29.60;;;12.40;;
4206;SDS011;2117;47.972;7.830;2022-10-31T18:24:06;21.20;;;13.00;;
4206;SDS011;2117;47.972;7.830;2022-10-31T18:26:33;21.80;;;14.03;;
4206;SDS011;2117;47.972;7.830;2022-10-31T18:28:59;21.97;;;12.70;;
4206;SDS011;2117;47.972;7.830;2022-10-31T18:31:25;19.37;;;11.60;;
4206;SDS011;2117;47.972;7.830;2022-10-31T18:33:51;18.63;;;11.00;;
4206;SDS011;2117;47.972;7.830;2022-10-31T18:36:18;12.43;;;8.73;;
4206;SDS011;2117;47.972;7.830;2022-10-31T18:38:44;18.83;;;9.67;;
4206;SDS011;2117;47.972;7.830;2022-10-31T18:41:09;18.40;;;9.07;;
4206;SDS011;2117;47.972;7.830;2022-10-31T18:43:36;12.07;;;7.60;;
4206;SDS011;2117;47.972;7.830;2022-10-31T18:46:02;19.23;;;8.07;;
4206;SDS011;2117;47.972;7.830;2022-10-31T18:48:30;14.90;;;7.97;;
4206;SDS011;2117;47.972;7.830;2022-10-31T18:50:56;17.30;;;9.33;;
4206;SDS011;2117;47.972;7.830;2022-10-31T18:53:25;18.63;;;8.27;;
4206;SDS011;2117;47.972;7.830;2022-10-31T18:55:51;23.17;;;9.20;;
4206;SDS011;2117;47.972;7.830;2022-10-31T18:58:17;13.57;;;7.40;;
4206;SDS011;2117;47.972;7.830;2022-10-31T19:00:42;15.10;;;7.90;;
4206;SDS011;2117;47.972;7.830;2022-10-31T19:03:09;15.10;;;6.90;;
4206;SDS011;2117;47.972;7.830;2022-10-31T19:05:35;12.77;;;6.90;;
4206;SDS011;2117;47.972;7.830;2022-10-31T19:08:01;16.53;;;9.07;;
4206;SDS011;2117;47.972;7.830;2022-10-31T19:10:26;15.30;;;9.43;;
4206;SDS011;2117;47.972;7.830;2022-10-31T19:12:52;12.03;;;8.83;;
4206;SDS011;2117;47.972;7.830;2022-10-31T19:15:17;13.70;;;8.83;;
4206;SDS011;2117;47.972;7.830;2022-10-31T19:17:43;17.03;;;10.53;;
4206;SDS011;2117;47.972;7.830;2022-10-31T19:20:08;18.63;;;8.87;;
4206;SDS011;2117;47.972;7.830;2022-10-31T19:22:34;9.70;;;7.60;;
4206;SDS011;2117;47.972;7.830;2022-10-31T19:25:00;20.13;;;8.87;;
4206;SDS011;2117;47.972;7.830;2022-10-31T19:27:25;13.80;;;9.67;;
4206;SDS011;2117;47.972;7.830;2022-10-31T19:29:52;17.23;;;9.17;;
4206;SDS011;2117;47.972;7.830;2022-10-31T19:32:17;21.00;;;9.70;;